createdAt,value
2023-05-04T00:00:50.019Z,95.55
2023-05-04T00:03:18.382Z,95.50
2023-05-04T00:05:48.036Z,95.84
2023-05-04T00:08:16.311Z,96.07
2023-05-04T00:10:44.507Z,95.99
2023-05-04T00:13:12.736Z,95.97
2023-05-04T00:15:41.446Z,96.53
2023-05-04T00:18:09.783Z,96.53
2023-05-04T00:20:38.250Z,97.10
2023-05-04T00:23:07.798Z,97.13
2023-05-04T00:25:36.049Z,97.55
2023-05-04T00:28:04.250Z,97.52
2023-05-04T00:30:32.454Z,97.42
2023-05-04T00:33:00.928Z,97.22
2023-05-04T00:35:29.884Z,97.87
2023-05-04T00:37:58.112Z,98.01
2023-05-04T00:40:27.718Z,98.00
2023-05-04T00:42:55.957Z,97.92
2023-05-04T00:45:24.243Z,98.16
2023-05-04T00:47:52.740Z,98.26
2023-05-04T00:50:21.190Z,98.56
2023-05-04T00:52:50.339Z,98.65
2023-05-04T00:55:19.080Z,98.69
2023-05-04T00:57:50.204Z,98.61
2023-05-04T01:00:19.033Z,98.97
2023-05-04T01:02:47.332Z,99.19
2023-05-04T01:05:16.963Z,98.86
2023-05-04T01:07:56.837Z,99.10
2023-05-04T01:10:31.277Z,98.77
2023-05-04T01:13:05.308Z,99.55
2023-05-04T01:15:34.378Z,99.31
2023-05-04T01:18:02.861Z,99.26
2023-05-04T01:20:31.702Z,99.86
2023-05-04T01:23:01.467Z,99.43
2023-05-04T01:25:35.299Z,99.89
2023-05-04T01:28:09.696Z,99.85
2023-05-04T01:30:41.769Z,99.62
2023-05-04T01:33:10.948Z,99.88
2023-05-04T01:35:39.582Z,99.42
2023-05-04T01:38:09.458Z,99.61
2023-05-04T01:40:37.670Z,99.88
2023-05-04T01:43:05.942Z,99.98
2023-05-04T01:45:34.313Z,100.17
2023-05-04T01:48:02.691Z,99.88
2023-05-04T01:50:31.007Z,100.36
2023-05-04T01:52:59.236Z,100.20
2023-05-04T01:55:28.799Z,100.19
2023-05-04T01:57:57.122Z,100.12
2023-05-04T02:00:25.542Z,100.76
2023-05-04T02:02:53.825Z,99.95
2023-05-04T02:05:22.206Z,100.00
2023-05-04T02:07:50.430Z,100.51
2023-05-04T02:10:18.692Z,100.38
2023-05-04T02:12:48.361Z,100.00
2023-05-04T02:15:16.692Z,100.43
2023-05-04T02:17:45.201Z,100.58
2023-05-04T02:20:15.099Z,100.90
2023-05-04T02:22:47.405Z,99.68
2023-05-04T02:25:15.918Z,99.58
2023-05-04T02:27:44.123Z,100.27
2023-05-04T02:30:15.140Z,101.12
2023-05-04T02:32:43.499Z,100.92
2023-05-04T02:35:12.985Z,100.03
2023-05-04T02:37:41.223Z,100.70
2023-05-04T02:40:10.501Z,100.37
2023-05-04T02:42:38.697Z,100.85
2023-05-04T02:45:09.158Z,99.96
2023-05-04T02:47:38.871Z,100.02
2023-05-04T02:50:08.792Z,100.61
2023-05-04T02:52:37.112Z,99.85
2023-05-04T02:55:05.810Z,99.77
2023-05-04T02:57:34.116Z,98.45
2023-05-04T03:00:02.563Z,99.26
2023-05-04T03:02:31.962Z,99.72
2023-05-04T03:05:01.594Z,99.74
2023-05-04T03:07:29.962Z,100.11
2023-05-04T03:09:58.161Z,99.13
2023-05-04T03:12:26.413Z,100.06
2023-05-04T03:14:54.980Z,99.32
2023-05-04T03:17:23.316Z,99.53
2023-05-04T03:19:54.716Z,99.09
2023-05-04T03:22:24.551Z,99.55
2023-05-04T03:24:52.841Z,98.97
2023-05-04T03:27:21.108Z,99.32
2023-05-04T03:29:49.327Z,98.67
2023-05-04T03:32:17.759Z,97.99
2023-05-04T03:34:46.883Z,98.74
2023-05-04T03:37:16.540Z,96.95
2023-05-04T03:39:46.189Z,98.35
2023-05-04T03:42:14.464Z,97.82
2023-05-04T03:44:42.704Z,96.76
2023-05-04T03:47:10.952Z,98.33
2023-05-04T03:49:39.222Z,96.58
2023-05-04T03:52:07.759Z,96.00
2023-05-04T03:54:37.935Z,97.96
2023-05-04T03:57:07.698Z,97.55
2023-05-04T03:59:37.577Z,96.46
2023-05-04T04:02:07.686Z,97.20
2023-05-04T04:04:37.127Z,96.76
2023-05-04T04:07:05.685Z,97.25
2023-05-04T04:09:33.943Z,96.89
2023-05-04T04:12:02.259Z,96.31
2023-05-04T04:14:31.891Z,95.31
2023-05-04T04:17:00.110Z,97.13
2023-05-04T04:19:28.311Z,95.80
2023-05-04T04:21:58.278Z,94.11
2023-05-04T04:24:26.921Z,96.38
2023-05-04T04:26:55.128Z,95.40
2023-05-04T04:29:23.324Z,95.73
2023-05-04T04:31:53.005Z,95.72
2023-05-04T04:34:21.305Z,94.98
2023-05-04T04:36:50.042Z,95.25
2023-05-04T04:39:18.469Z,95.06
2023-05-04T04:41:46.765Z,96.05
2023-05-04T04:44:15.107Z,96.35
2023-05-04T04:46:44.650Z,96.29
2023-05-04T04:49:14.288Z,94.26
2023-05-04T04:51:42.527Z,96.64
2023-05-04T04:54:11.292Z,96.60
2023-05-04T04:56:40.550Z,95.85
2023-05-04T04:59:10.627Z,96.79
2023-05-04T05:01:38.884Z,94.54
2023-05-04T05:04:07.684Z,96.56
2023-05-04T05:06:37.727Z,95.43
2023-05-04T05:09:06.008Z,96.11
2023-05-04T05:11:34.310Z,96.10
2023-05-04T05:14:02.560Z,95.44
2023-05-04T05:16:31.058Z,96.15
2023-05-04T05:18:59.319Z,96.65
2023-05-04T05:21:27.526Z,96.20
2023-05-04T05:23:57.117Z,96.87
2023-05-04T05:26:25.830Z,96.58
2023-05-04T05:28:54.018Z,96.99
2023-05-04T05:31:22.416Z,97.67
2023-05-04T05:33:50.782Z,95.67
2023-05-04T05:36:18.993Z,96.58
2023-05-04T05:38:48.947Z,96.29
2023-05-04T05:41:20.281Z,95.84
2023-05-04T05:43:48.531Z,97.02
2023-05-04T05:46:16.891Z,97.08
2023-05-04T05:48:45.258Z,97.42
2023-05-04T05:51:13.467Z,98.42
2023-05-04T05:53:42.781Z,97.74
2023-05-04T05:56:11.095Z,99.77
2023-05-04T05:58:40.724Z,99.40
2023-05-04T06:01:09.088Z,98.77
2023-05-04T06:03:37.805Z,99.48
2023-05-04T06:06:06.433Z,100.28
2023-05-04T06:08:34.801Z,99.17
2023-05-04T06:11:03.019Z,99.60
2023-05-04T06:13:31.201Z,99.01
2023-05-04T06:16:00.924Z,100.38
2023-05-04T06:18:29.206Z,100.70
2023-05-04T06:21:01.307Z,98.84
2023-05-04T06:23:29.838Z,101.03
2023-05-04T06:25:58.438Z,100.37
2023-05-04T06:28:26.773Z,101.23
2023-05-04T06:30:55.048Z,100.02
2023-05-04T06:33:24.837Z,100.43
2023-05-04T06:35:53.640Z,100.80
2023-05-04T06:38:22.312Z,100.22
2023-05-04T06:40:50.569Z,100.74
2023-05-04T06:43:19.055Z,101.42
2023-05-04T06:45:47.309Z,100.99
2023-05-04T06:48:15.594Z,100.54
2023-05-04T06:50:45.392Z,99.51
2023-05-04T06:53:13.592Z,100.19
2023-05-04T06:55:41.862Z,100.14
2023-05-04T06:58:10.106Z,100.49
2023-05-04T07:00:38.354Z,100.42
2023-05-04T07:03:06.717Z,100.15
2023-05-04T07:05:36.904Z,100.58
2023-05-04T07:08:06.824Z,100.19
2023-05-04T07:10:35.078Z,98.85
2023-05-04T07:13:03.572Z,99.23
2023-05-04T07:15:33.772Z,98.10
2023-05-04T07:18:02.512Z,98.47
2023-05-04T07:20:30.789Z,99.33
2023-05-04T07:22:59.003Z,99.24
2023-05-04T07:25:29.441Z,99.30
2023-05-04T07:27:58.374Z,98.68
2023-05-04T07:30:26.928Z,98.60
2023-05-04T07:32:55.226Z,98.32
2023-05-04T07:35:23.812Z,97.90
2023-05-04T07:37:52.013Z,98.04
2023-05-04T07:40:21.509Z,97.32
2023-05-04T07:42:51.132Z,96.85
2023-05-04T07:45:19.737Z,96.11
2023-05-04T07:47:48.007Z,96.29
2023-05-04T07:50:16.459Z,95.88
2023-05-04T07:52:46.368Z,96.58
2023-05-04T07:55:14.815Z,94.76
2023-05-04T07:57:43.133Z,93.91
2023-05-04T08:00:14.807Z,93.99
2023-05-04T08:02:43.166Z,93.91
2023-05-04T08:05:11.823Z,93.57
2023-05-04T08:07:40.211Z,93.23
2023-05-04T08:10:09.863Z,92.88
2023-05-04T08:12:38.129Z,91.32
2023-05-04T08:15:07.689Z,88.51
2023-05-04T08:17:39.357Z,88.48
2023-05-04T08:20:09.564Z,87.48
2023-05-04T08:22:38.651Z,88.80
2023-05-04T08:25:08.201Z,88.74
2023-05-04T08:27:36.487Z,87.19
2023-05-04T08:30:05.255Z,86.48
2023-05-04T08:32:33.657Z,85.80
2023-05-04T08:35:03.520Z,86.86
2023-05-04T08:37:31.964Z,86.78
2023-05-04T08:40:00.218Z,87.54
2023-05-04T08:42:29.468Z,86.46
2023-05-04T08:44:58.364Z,85.61
2023-05-04T08:47:27.347Z,84.07
2023-05-04T08:49:56.398Z,83.04
2023-05-04T08:52:27.040Z,83.64
2023-05-04T08:54:57.657Z,84.08
2023-05-04T08:57:26.745Z,83.75
2023-05-04T08:59:56.878Z,83.65
2023-05-04T09:02:26.063Z,82.71
2023-05-04T09:04:55.302Z,83.16
2023-05-04T09:07:25.042Z,84.61
2023-05-04T09:09:53.817Z,81.30
2023-05-04T09:12:22.062Z,81.34
2023-05-04T09:14:50.416Z,82.10
2023-05-04T09:17:25.503Z,81.30
2023-05-04T09:20:01.394Z,83.08
2023-05-04T09:22:31.762Z,81.13
2023-05-04T09:25:08.761Z,80.30
2023-05-04T09:27:37.008Z,79.19
2023-05-04T09:30:05.941Z,81.38
2023-05-04T09:32:38.020Z,79.27
2023-05-04T09:35:07.937Z,78.52
2023-05-04T09:37:46.922Z,79.04
2023-05-04T09:40:15.934Z,79.37
2023-05-04T09:42:44.275Z,77.47
2023-05-04T09:45:13.696Z,80.13
2023-05-04T09:47:44.160Z,79.43
2023-05-04T09:50:19.742Z,79.04
2023-05-04T09:52:51.432Z,80.69
2023-05-04T09:55:21.209Z,78.24
2023-05-04T09:57:50.982Z,78.01
2023-05-04T10:00:20.368Z,79.30
2023-05-04T10:02:49.245Z,78.45
2023-05-04T10:05:21.223Z,77.62
2023-05-04T10:07:51.230Z,77.57
2023-05-04T10:10:19.445Z,76.75
2023-05-04T10:12:47.998Z,77.49
2023-05-04T10:15:18.284Z,78.90
2023-05-04T10:17:59.705Z,78.68
2023-05-04T10:20:44.203Z,76.85
2023-05-04T10:23:46.567Z,75.18
2023-05-04T10:26:50.247Z,75.87
2023-05-04T10:29:23.489Z,76.49
2023-05-04T10:31:53.487Z,76.14
2023-05-04T10:34:26.914Z,72.84
2023-05-04T10:36:55.465Z,74.68
2023-05-04T10:39:26.200Z,74.23
2023-05-04T10:41:59.192Z,74.99
2023-05-04T10:44:28.711Z,74.48
2023-05-04T10:47:01.760Z,74.43
2023-05-04T10:49:30.778Z,74.87
2023-05-04T10:52:12.915Z,73.22
2023-05-04T10:54:44.117Z,73.88
2023-05-04T10:57:14.687Z,75.38
2023-05-04T10:59:42.960Z,73.22
2023-05-04T11:02:12.057Z,74.03
2023-05-04T11:04:40.600Z,72.78
2023-05-04T11:07:09.013Z,72.74
2023-05-04T11:09:38.901Z,71.72
2023-05-04T11:12:10.803Z,72.87
2023-05-04T11:14:42.607Z,72.84
2023-05-04T11:17:26.699Z,71.34
2023-05-04T11:19:55.499Z,69.33
2023-05-04T11:22:23.919Z,70.27
2023-05-04T11:24:52.860Z,69.48
2023-05-04T11:27:24.892Z,70.36
2023-05-04T11:30:00.285Z,70.61
2023-05-04T11:32:36.092Z,69.43
2023-05-04T11:35:05.689Z,69.07
2023-05-04T11:37:40.794Z,68.47
2023-05-04T11:40:14.202Z,69.71
2023-05-04T11:42:44.722Z,67.03
2023-05-04T11:45:15.699Z,67.43
2023-05-04T11:47:45.047Z,67.33
2023-05-04T11:50:15.147Z,67.24
2023-05-04T11:52:44.545Z,65.79
2023-05-04T11:55:15.063Z,67.30
2023-05-04T11:57:44.612Z,64.84
2023-05-04T12:00:13.966Z,67.17
2023-05-04T12:02:42.735Z,67.17
2023-05-04T12:05:14.875Z,66.70
2023-05-04T12:07:43.177Z,66.15
2023-05-04T12:10:11.818Z,65.88
2023-05-04T12:12:40.078Z,64.24
2023-05-04T12:15:11.419Z,65.51
2023-05-04T12:17:42.909Z,63.89
2023-05-04T12:20:11.997Z,64.59
2023-05-04T12:22:40.605Z,65.02
2023-05-04T12:25:11.372Z,63.53
2023-05-04T12:27:42.162Z,65.27
2023-05-04T12:30:13.377Z,63.34
2023-05-04T12:32:41.829Z,63.95
2023-05-04T12:35:10.813Z,64.05
2023-05-04T12:37:39.090Z,63.21
2023-05-04T12:40:20.959Z,63.40
2023-05-04T12:42:55.843Z,63.18
2023-05-04T12:45:25.438Z,63.59
2023-05-04T12:47:53.682Z,64.07
2023-05-04T12:50:22.067Z,63.84
2023-05-04T12:52:50.267Z,66.09
2023-05-04T12:55:18.642Z,65.01
2023-05-04T12:57:47.363Z,66.43
2023-05-04T13:00:16.642Z,64.11
2023-05-04T13:02:46.217Z,62.50
2023-05-04T13:05:15.784Z,64.37
2023-05-04T13:07:44.032Z,64.88
2023-05-04T13:10:12.412Z,65.34
2023-05-04T13:12:40.742Z,67.24
2023-05-04T13:15:10.447Z,66.73
2023-05-04T13:17:39.385Z,64.14
2023-05-04T13:20:10.537Z,65.24
2023-05-04T13:22:39.740Z,63.14
2023-05-04T13:25:09.252Z,63.89
2023-05-04T13:27:37.625Z,62.00
2023-05-04T13:30:08.515Z,64.69
2023-05-04T13:32:36.830Z,64.32
2023-05-04T13:35:05.720Z,63.27
2023-05-04T13:37:35.611Z,60.07
2023-05-04T13:40:03.887Z,61.34
2023-05-04T13:42:32.097Z,61.42
2023-05-04T13:45:00.266Z,62.08
2023-05-04T13:47:28.475Z,62.10
2023-05-04T13:49:56.747Z,62.41
2023-05-04T13:52:24.986Z,60.99
2023-05-04T13:54:55.220Z,61.16
2023-05-04T13:57:23.443Z,60.90
2023-05-04T14:00:02.886Z,61.63
2023-05-04T14:02:42.216Z,62.21
2023-05-04T14:05:10.750Z,59.49
2023-05-04T14:07:38.972Z,60.63
2023-05-04T14:10:09.709Z,60.32
2023-05-04T14:12:38.017Z,62.50
2023-05-04T14:15:07.474Z,62.74
2023-05-04T14:17:36.788Z,62.08
2023-05-04T14:20:05.905Z,63.21
2023-05-04T14:22:36.431Z,61.97
2023-05-04T14:25:08.789Z,62.79
2023-05-04T14:27:37.249Z,62.50
2023-05-04T14:30:09.401Z,62.46
2023-05-04T14:32:38.008Z,59.35
2023-05-04T14:35:08.889Z,59.35
2023-05-04T14:37:39.017Z,59.36
2023-05-04T14:40:10.275Z,56.08
2023-05-04T14:42:39.453Z,55.49
2023-05-04T14:45:08.886Z,57.93
2023-05-04T14:47:37.323Z,59.03
2023-05-04T14:50:07.390Z,57.66
2023-05-04T14:52:36.027Z,58.71
2023-05-04T14:55:06.440Z,60.65
2023-05-04T14:57:36.683Z,61.41
2023-05-04T15:00:08.789Z,62.21
2023-05-04T15:02:38.470Z,62.84
2023-05-04T15:05:09.811Z,60.26
2023-05-04T15:07:37.995Z,61.11
2023-05-04T15:10:08.181Z,60.48
2023-05-04T15:12:39.620Z,61.06
2023-05-04T15:15:08.840Z,59.71
2023-05-04T15:17:37.091Z,60.30
2023-05-04T15:20:06.258Z,60.60
2023-05-04T15:22:34.862Z,61.02
2023-05-04T15:25:03.562Z,61.72
2023-05-04T15:27:31.772Z,60.38
2023-05-04T15:30:01.388Z,61.68
2023-05-04T15:32:29.778Z,61.84
2023-05-04T15:35:05.081Z,60.98
2023-05-04T15:37:34.508Z,61.09
2023-05-04T15:40:02.954Z,63.08
2023-05-04T15:42:31.609Z,61.76
2023-05-04T15:45:01.400Z,62.20
2023-05-04T15:47:30.380Z,63.79
2023-05-04T15:49:58.788Z,63.37
2023-05-04T15:52:27.047Z,63.98
2023-05-04T15:54:56.252Z,64.18
2023-05-04T15:57:24.509Z,64.31
2023-05-04T15:59:52.895Z,65.36
2023-05-04T16:02:22.989Z,65.08
2023-05-04T16:04:51.276Z,65.62
2023-05-04T16:07:19.608Z,64.17
2023-05-04T16:09:47.797Z,66.23
2023-05-04T16:12:16.029Z,64.88
2023-05-04T16:14:44.359Z,65.88
2023-05-04T16:17:12.576Z,65.61
2023-05-04T16:19:42.208Z,64.85
2023-05-04T16:22:10.510Z,65.40
2023-05-04T16:24:38.699Z,65.04
2023-05-04T16:27:07.852Z,65.66
2023-05-04T16:29:36.571Z,65.02
2023-05-04T16:32:05.156Z,65.51
2023-05-04T16:34:33.385Z,65.27
2023-05-04T16:37:03.640Z,64.33
2023-05-04T16:39:34.225Z,65.84
2023-05-04T16:42:02.943Z,68.70
2023-05-04T16:44:32.123Z,66.28
2023-05-04T16:47:00.421Z,67.26
2023-05-04T16:49:28.669Z,65.83
2023-05-04T16:51:57.257Z,63.43
2023-05-04T16:54:26.911Z,61.13
2023-05-04T16:56:55.444Z,61.71
2023-05-04T16:59:23.648Z,63.01
2023-05-04T17:01:51.947Z,63.33
2023-05-04T17:04:20.256Z,64.43
2023-05-04T17:06:48.485Z,63.86
2023-05-04T17:09:16.705Z,64.72
2023-05-04T17:11:47.364Z,66.79
2023-05-04T17:14:16.170Z,66.15
2023-05-04T17:16:44.411Z,67.41
2023-05-04T17:19:13.008Z,67.41
2023-05-04T17:21:41.328Z,66.40
2023-05-04T17:24:09.618Z,67.07
2023-05-04T17:26:37.873Z,66.74
2023-05-04T17:29:08.518Z,68.23
2023-05-04T17:31:36.814Z,69.56
2023-05-04T17:34:05.214Z,68.49
2023-05-04T17:36:33.443Z,70.61
2023-05-04T17:39:01.625Z,71.67
2023-05-04T17:41:51.022Z,73.06
2023-05-04T17:44:20.646Z,72.74
2023-05-04T17:46:48.869Z,73.54
2023-05-04T17:49:19.159Z,74.73
2023-05-04T17:51:49.130Z,77.15
2023-05-04T17:54:17.544Z,78.15
2023-05-04T17:56:45.807Z,78.76
2023-05-04T17:59:14.106Z,79.56
2023-05-04T18:01:43.679Z,80.41
2023-05-04T18:04:12.001Z,81.80
2023-05-04T18:06:40.324Z,82.96
2023-05-04T18:09:08.750Z,83.92
2023-05-04T18:11:37.080Z,83.65
2023-05-04T18:14:05.328Z,84.86
2023-05-04T18:16:36.214Z,84.71
2023-05-04T18:19:06.471Z,86.00
2023-05-04T18:21:36.566Z,86.34
2023-05-04T18:24:05.131Z,87.59
2023-05-04T18:26:33.391Z,87.84
2023-05-04T18:29:17.340Z,88.86
2023-05-04T18:31:47.274Z,89.52
2023-05-04T18:34:16.964Z,93.08
2023-05-04T18:36:46.895Z,92.98
2023-05-04T18:39:16.245Z,93.47
2023-05-04T18:41:44.553Z,94.65
2023-05-04T18:44:18.576Z,94.38
2023-05-04T18:46:47.161Z,94.62
2023-05-04T18:49:16.822Z,95.55
2023-05-04T18:51:45.020Z,96.30
2023-05-04T18:54:15.285Z,96.35
2023-05-04T18:56:43.686Z,97.56
2023-05-04T18:59:11.901Z,97.84
2023-05-04T19:01:40.449Z,97.30
2023-05-04T19:04:08.881Z,97.94
2023-05-04T19:06:38.566Z,97.86
2023-05-04T19:09:08.141Z,98.30
2023-05-04T19:11:36.813Z,98.98
2023-05-04T19:14:05.078Z,98.63
2023-05-04T19:16:33.309Z,99.40
2023-05-04T19:19:01.612Z,99.31
2023-05-04T19:21:29.836Z,99.00
2023-05-04T19:23:59.429Z,99.48
2023-05-04T19:26:27.756Z,98.26
2023-05-04T19:28:55.965Z,98.46
2023-05-04T19:31:24.202Z,98.32
2023-05-04T19:33:52.660Z,98.54
2023-05-04T19:36:20.939Z,98.81
2023-05-04T19:38:49.256Z,97.58
2023-05-04T19:41:18.946Z,97.42
2023-05-04T19:43:47.205Z,99.29
2023-05-04T19:46:15.639Z,98.39
2023-05-04T19:48:43.901Z,98.66
2023-05-04T19:51:12.176Z,98.19
2023-05-04T19:53:40.423Z,97.94
2023-05-04T19:56:08.656Z,97.10
2023-05-04T19:58:38.649Z,96.84
2023-05-04T20:01:06.953Z,97.79
2023-05-04T20:03:35.413Z,97.53
2023-05-04T20:06:03.952Z,96.48
2023-05-04T20:08:32.235Z,96.06
2023-05-04T20:11:00.450Z,96.59
2023-05-04T20:13:28.687Z,96.57
2023-05-04T20:15:58.327Z,96.81
2023-05-04T20:18:26.708Z,96.68
2023-05-04T20:20:55.054Z,97.07
2023-05-04T20:23:23.329Z,96.03
2023-05-04T20:25:51.757Z,93.95
2023-05-04T20:28:20.243Z,93.54
2023-05-04T20:30:48.433Z,90.31
2023-05-04T20:33:18.077Z,87.97
2023-05-04T20:35:46.349Z,88.59
2023-05-04T20:38:15.461Z,87.31
2023-05-04T20:40:43.647Z,88.04
2023-05-04T20:43:11.977Z,86.18
2023-05-04T20:45:40.147Z,86.29
2023-05-04T20:48:08.510Z,88.97
2023-05-04T20:50:40.024Z,87.44
2023-05-04T20:53:08.777Z,86.80
2023-05-04T20:55:37.256Z,87.95
2023-05-04T20:58:05.489Z,87.90
2023-05-04T21:00:33.914Z,85.24
2023-05-04T21:03:02.217Z,85.53
2023-05-04T21:05:31.020Z,81.51
2023-05-04T21:08:01.155Z,82.54
2023-05-04T21:10:29.561Z,83.76
2023-05-04T21:12:58.363Z,80.30
2023-05-04T21:15:26.781Z,74.47
2023-05-04T21:17:55.518Z,72.41
2023-05-04T21:20:24.007Z,71.60
2023-05-04T21:22:52.268Z,69.69
2023-05-04T21:25:22.299Z,68.39
2023-05-04T21:27:50.587Z,67.72
2023-05-04T21:30:18.869Z,66.39
2023-05-04T21:32:47.124Z,66.21
2023-05-04T21:35:16.461Z,65.75
2023-05-04T21:37:44.664Z,65.12
2023-05-04T21:40:13.032Z,64.98
2023-05-04T21:42:42.709Z,64.37
2023-05-04T21:45:11.641Z,64.84
2023-05-04T21:47:39.921Z,65.11
2023-05-04T21:50:09.490Z,65.01
2023-05-04T21:52:37.910Z,65.11
2023-05-04T21:55:06.996Z,64.88
2023-05-04T21:57:35.349Z,65.33
2023-05-04T22:00:11.978Z,64.78
2023-05-04T22:02:40.823Z,64.98
2023-05-04T22:05:11.412Z,65.92
2023-05-04T22:07:39.845Z,65.85
2023-05-04T22:10:09.461Z,65.47
2023-05-04T22:12:38.063Z,65.52
2023-05-04T22:15:10.250Z,65.09
2023-05-04T22:17:38.905Z,67.94
2023-05-04T22:20:09.175Z,67.49
2023-05-04T22:22:37.563Z,66.99
2023-05-04T22:25:06.421Z,67.33
2023-05-04T22:27:34.617Z,66.54
2023-05-04T22:30:02.807Z,65.36
2023-05-04T22:32:32.469Z,66.56
2023-05-04T22:35:00.710Z,66.01
2023-05-04T22:37:28.882Z,66.10
2023-05-04T22:39:57.072Z,66.04
2023-05-04T22:42:25.322Z,65.59
2023-05-04T22:44:53.499Z,65.63
2023-05-04T22:47:21.681Z,65.81
2023-05-04T22:49:55.096Z,66.22
2023-05-04T22:52:23.496Z,65.75
2023-05-04T22:54:51.742Z,66.65
2023-05-04T22:57:19.964Z,66.24
2023-05-04T22:59:48.203Z,66.43
2023-05-04T23:02:16.505Z,66.77
2023-05-04T23:04:44.945Z,66.88
2023-05-04T23:07:14.643Z,67.90
2023-05-04T23:09:45.235Z,67.09
2023-05-04T23:12:13.542Z,67.09
2023-05-04T23:14:41.775Z,66.71
2023-05-04T23:17:10.505Z,67.81
2023-05-04T23:19:38.708Z,66.97
2023-05-04T23:22:06.980Z,67.75
2023-05-04T23:24:36.575Z,67.07
2023-05-04T23:27:04.987Z,67.78
2023-05-04T23:29:33.383Z,67.84
2023-05-04T23:32:01.710Z,67.61
2023-05-04T23:34:29.927Z,68.00
2023-05-04T23:36:58.209Z,67.81
2023-05-04T23:39:26.482Z,68.74
2023-05-04T23:41:56.066Z,68.01
2023-05-04T23:44:24.706Z,68.65
2023-05-04T23:46:53.019Z,68.42
2023-05-04T23:49:21.213Z,68.66
2023-05-04T23:51:49.481Z,68.64
2023-05-04T23:54:17.668Z,68.71
2023-05-04T23:56:45.901Z,68.88
2023-05-04T23:59:15.447Z,68.93
